Time;durP1;ratioP1;P1;durP2;ratioP2;P2;SDS_P1;SDS_P2;PMS_P1;PMS_P2;Temp;Humidity;BMP_temperature;BMP_pressure;BME280_temperature;BME280_humidity;BME280_pressure;Samples;Min_cycle;Max_cycle;Signal;HPM_P1;HPM_P2
2022/10/21 00:00:58;;;;;;;30.05;21.10;;;12.30;99.90;;;;;;4979993;28;20042;-70
2022/10/21 00:03:25;;;;;;;26.65;19.33;;;12.30;99.90;;;;;;4980285;28;20052;-70
2022/10/21 00:05:51;;;;;;;35.50;23.30;;;12.30;99.90;;;;;;4997074;28;20173;-70
2022/10/21 00:08:18;;;;;;;33.65;21.38;;;12.30;99.90;;;;;;4980589;28;20406;-70
2022/10/21 00:10:44;;;;;;;29.88;20.48;;;12.30;99.90;;;;;;4979650;28;20046;-70
2022/10/21 00:13:09;;;;;;;26.65;19.25;;;12.30;99.90;;;;;;4996660;28;20077;-70
2022/10/21 00:15:35;;;;;;;26.90;20.38;;;12.30;99.90;;;;;;4980213;28;20042;-70
2022/10/21 00:18:01;;;;;;;25.60;18.85;;;12.20;99.90;;;;;;4996229;28;20042;-70
2022/10/21 00:20:26;;;;;;;30.88;22.45;;;12.30;99.90;;;;;;4980435;28;20388;-70
2022/10/21 00:22:52;;;;;;;32.50;21.77;;;12.20;99.90;;;;;;4980098;28;20088;-70
2022/10/21 00:25:17;;;;;;;28.33;19.80;;;12.20;99.90;;;;;;4996487;28;20076;-69
2022/10/21 00:27:43;;;;;;;31.10;21.10;;;12.20;99.90;;;;;;4980260;28;20034;-70
2022/10/21 00:30:10;;;;;;;31.20;22.08;;;12.20;99.90;;;;;;4964370;28;20140;-70
2022/10/21 00:32:36;;;;;;;33.85;22.20;;;12.20;99.90;;;;;;4996271;28;20042;-70
2022/10/21 00:35:02;;;;;;;30.60;20.85;;;12.20;99.90;;;;;;4996457;28;20044;-70
2022/10/21 00:37:31;;;;;;;32.83;22.27;;;12.20;99.90;;;;;;4996278;28;20058;-70
2022/10/21 00:39:58;;;;;;;32.38;23.23;;;12.20;99.90;;;;;;4963521;28;20039;-70
2022/10/21 00:42:32;;;;;;;29.25;20.15;;;12.20;99.90;;;;;;4995964;28;20047;-70
2022/10/21 00:45:04;;;;;;;27.10;20.80;;;12.20;99.90;;;;;;4980090;28;20045;-70
2022/10/21 00:47:30;;;;;;;26.42;20.60;;;12.20;99.90;;;;;;4980341;28;20046;-70
2022/10/21 00:50:02;;;;;;;31.52;20.60;;;12.10;99.90;;;;;;4963447;28;20046;-70
2022/10/21 00:52:30;;;;;;;26.63;19.42;;;12.20;99.90;;;;;;4963428;28;20046;-70
2022/10/21 00:54:58;;;;;;;31.42;21.75;;;12.10;99.90;;;;;;4979850;28;20053;-70
2022/10/21 00:57:25;;;;;;;30.77;20.42;;;12.10;99.90;;;;;;4979921;28;20050;-70
2022/10/21 00:59:58;;;;;;;30.63;21.73;;;12.10;99.90;;;;;;4962780;28;20525;-70
2022/10/21 01:02:23;;;;;;;28.75;20.45;;;12.10;99.90;;;;;;4995557;28;20034;-70
2022/10/21 01:04:58;;;;;;;34.08;21.67;;;12.10;99.90;;;;;;4979572;28;20049;-71
2022/10/21 01:07:24;;;;;;;28.98;21.10;;;12.10;99.90;;;;;;4979578;28;20046;-71
2022/10/21 01:09:49;;;;;;;33.65;20.83;;;12.10;99.90;;;;;;4979153;28;20046;-70
2022/10/21 01:12:43;;;;;;;30.65;19.52;;;12.10;99.90;;;;;;4979983;28;20210;-70
2022/10/21 01:15:20;;;;;;;28.73;20.42;;;12.10;99.90;;;;;;4979715;28;20034;-70
2022/10/21 01:17:52;;;;;;;31.67;21.92;;;12.10;99.90;;;;;;4979437;28;20156;-70
2022/10/21 01:20:56;;;;;;;33.42;21.48;;;12.10;99.90;;;;;;4979116;28;20043;-70
2022/10/21 01:23:48;;;;;;;27.83;19.02;;;12.10;99.90;;;;;;4979208;28;20174;-70
2022/10/21 01:26:39;;;;;;;29.85;21.38;;;12.10;99.90;;;;;;4979205;28;20034;-70
2022/10/21 01:29:23;;;;;;;27.10;19.55;;;12.10;99.90;;;;;;4979146;28;20049;-70
2022/10/21 01:32:03;;;;;;;32.70;20.05;;;12.10;99.90;;;;;;4979355;28;20050;-69
2022/10/21 01:34:37;;;;;;;30.23;20.55;;;12.10;99.90;;;;;;4996952;28;20084;-70
2022/10/21 01:37:11;;;;;;;33.25;19.33;;;12.10;99.90;;;;;;4979514;28;20133;-70
2022/10/21 01:39:46;;;;;;;26.65;20.23;;;12.10;99.90;;;;;;4979636;28;20050;-70
2022/10/21 01:42:40;;;;;;;33.40;20.55;;;12.10;99.90;;;;;;4979537;28;20034;-70
2022/10/21 01:45:30;;;;;;;26.98;18.52;;;12.10;99.90;;;;;;4979452;28;20068;-70
2022/10/21 01:48:01;;;;;;;34.80;22.45;;;12.10;99.90;;;;;;4978433;28;20043;-69
2022/10/21 01:50:31;;;;;;;32.47;22.38;;;12.10;99.90;;;;;;4995624;28;20048;-70
2022/10/21 01:53:01;;;;;;;31.80;21.55;;;12.10;99.90;;;;;;4997372;28;20529;-70
2022/10/21 01:55:30;;;;;;;31.83;21.05;;;12.10;99.90;;;;;;4982619;28;20047;-70
2022/10/21 01:58:02;;;;;;;30.25;20.92;;;12.20;99.90;;;;;;4982257;28;20537;-69
2022/10/21 02:00:29;;;;;;;28.42;20.20;;;12.20;99.90;;;;;;4998676;28;20069;-70
2022/10/21 02:02:56;;;;;;;29.48;20.38;;;12.20;99.90;;;;;;4983172;28;20050;-70
2022/10/21 02:05:29;;;;;;;26.42;19.15;;;12.20;99.90;;;;;;4966121;28;20443;-70
2022/10/21 02:07:55;;;;;;;34.83;24.17;;;12.20;99.90;;;;;;4982217;28;20098;-70
2022/10/21 02:10:24;;;;;;;29.15;21.40;;;12.20;99.90;;;;;;4982744;28;20065;-70
2022/10/21 02:12:52;;;;;;;32.05;21.77;;;12.30;99.90;;;;;;4998260;28;20052;-70
2022/10/21 02:15:20;;;;;;;30.48;20.75;;;12.30;99.90;;;;;;4982493;28;20533;-70
2022/10/21 02:17:53;;;;;;;32.67;22.23;;;12.30;99.90;;;;;;4965591;28;20496;-70
2022/10/21 02:20:23;;;;;;;27.90;19.38;;;12.30;99.90;;;;;;4965806;28;20467;-71
2022/10/21 02:22:49;;;;;;;28.13;20.05;;;12.30;99.90;;;;;;4982319;28;20042;-71
2022/10/21 02:25:22;;;;;;;30.15;19.23;;;12.30;99.90;;;;;;4981994;28;20126;-70
2022/10/21 02:27:48;;;;;;;33.50;20.50;;;12.40;99.90;;;;;;4999695;28;20064;-70
2022/10/21 02:30:14;;;;;;;29.73;20.02;;;12.40;99.90;;;;;;4999180;28;20045;-70
2022/10/21 02:32:39;;;;;;;31.90;21.60;;;12.40;99.90;;;;;;4997602;28;20042;-70
2022/10/21 02:35:10;;;;;;;34.70;23.08;;;12.40;99.90;;;;;;4981866;28;20046;-70
2022/10/21 02:37:42;;;;;;;29.15;21.20;;;12.40;99.90;;;;;;4981714;28;20046;-70
2022/10/21 02:40:22;;;;;;;34.78;23.23;;;12.50;99.90;;;;;;4981352;28;20392;-70
2022/10/21 02:42:56;;;;;;;31.05;21.90;;;12.50;99.90;;;;;;4981454;28;20069;-70
2022/10/21 02:45:22;;;;;;;35.03;22.58;;;12.50;99.90;;;;;;4997051;28;20046;-69
2022/10/21 02:47:49;;;;;;;44.45;25.67;;;12.50;99.90;;;;;;4997275;28;20117;-69
2022/10/21 02:50:14;;;;;;;41.45;25.00;;;12.50;99.90;;;;;;4964851;28;20106;-70
2022/10/21 02:52:40;;;;;;;40.25;25.33;;;12.50;99.90;;;;;;4980990;28;20460;-70
2022/10/21 02:55:06;;;;;;;45.33;25.52;;;12.50;99.90;;;;;;4965079;28;20100;-70
2022/10/21 02:57:31;;;;;;;45.65;25.90;;;12.60;99.90;;;;;;4980174;28;20050;-70
2022/10/21 02:59:57;;;;;;;33.83;23.90;;;12.50;99.90;;;;;;4980709;28;20034;-70
2022/10/21 03:02:23;;;;;;;31.00;21.33;;;12.60;99.90;;;;;;4980589;28;20491;-69
2022/10/21 03:04:48;;;;;;;31.80;22.23;;;12.60;99.90;;;;;;4980077;28;20626;-69
2022/10/21 03:07:14;;;;;;;34.08;23.08;;;12.60;99.90;;;;;;4980364;28;20083;-70
2022/10/21 03:09:40;;;;;;;34.30;23.45;;;12.60;99.90;;;;;;4981016;28;20147;-70
2022/10/21 03:12:06;;;;;;;37.75;25.33;;;12.60;99.90;;;;;;4964797;28;20046;-69
2022/10/21 03:14:31;;;;;;;38.13;25.52;;;12.60;99.90;;;;;;4965199;28;20050;-70
2022/10/21 03:16:57;;;;;;;37.50;24.25;;;12.60;99.90;;;;;;4981129;28;20041;-70
2022/10/21 03:19:23;;;;;;;33.30;24.38;;;12.60;99.90;;;;;;4980694;28;20042;-70
2022/10/21 03:21:48;;;;;;;30.33;22.45;;;12.60;99.90;;;;;;4980562;28;20034;-70
2022/10/21 03:24:14;;;;;;;30.13;22.83;;;12.70;99.90;;;;;;4980578;28;20117;-70
2022/10/21 03:26:39;;;;;;;36.08;23.15;;;12.60;99.90;;;;;;4980561;28;20038;-70
2022/10/21 03:29:05;;;;;;;32.88;21.58;;;12.70;99.90;;;;;;4980619;28;20050;-70
2022/10/21 03:31:30;;;;;;;29.70;21.35;;;12.70;99.90;;;;;;4980509;28;20038;-70
2022/10/21 03:33:56;;;;;;;42.65;26.02;;;12.70;99.90;;;;;;4996597;28;20078;-70
2022/10/21 03:36:21;;;;;;;38.03;25.15;;;12.70;99.90;;;;;;4980931;28;20050;-70
2022/10/21 03:38:47;;;;;;;28.67;21.83;;;12.70;99.90;;;;;;4981145;28;20034;-70
2022/10/21 03:41:13;;;;;;;38.00;24.80;;;12.70;99.90;;;;;;4996497;28;20042;-70
2022/10/21 03:43:38;;;;;;;31.55;23.05;;;12.70;99.90;;;;;;4980524;28;20041;-70
2022/10/21 03:46:04;;;;;;;29.77;22.60;;;12.70;99.90;;;;;;4980920;28;20073;-70
2022/10/21 03:48:29;;;;;;;35.30;24.17;;;12.70;99.90;;;;;;4980550;28;20098;-70
2022/10/21 03:50:55;;;;;;;44.45;25.00;;;12.70;99.90;;;;;;4981041;28;20050;-70
2022/10/21 03:53:21;;;;;;;71.93;29.65;;;12.70;99.90;;;;;;4980493;28;20057;-69
2022/10/21 03:55:48;;;;;;;57.75;28.17;;;12.60;99.90;;;;;;4996397;28;20046;-70
2022/10/21 03:58:14;;;;;;;45.08;26.00;;;12.60;99.90;;;;;;4996429;28;20510;-70
2022/10/21 04:00:39;;;;;;;36.70;22.85;;;12.60;99.90;;;;;;4980387;28;20049;-70
2022/10/21 04:03:05;;;;;;;39.58;23.70;;;12.50;99.90;;;;;;4980236;28;20038;-70
2022/10/21 04:05:30;;;;;;;33.38;23.40;;;12.40;99.90;;;;;;4996637;28;20053;-71
2022/10/21 04:07:56;;;;;;;42.85;26.67;;;12.50;99.90;;;;;;4980293;28;20042;-69
2022/10/21 04:10:21;;;;;;;33.75;22.13;;;12.40;99.90;;;;;;4980909;28;20061;-70
2022/10/21 04:12:47;;;;;;;42.13;25.25;;;12.50;99.90;;;;;;4980381;28;20042;-70
2022/10/21 04:15:13;;;;;;;29.13;20.98;;;12.50;99.90;;;;;;4980413;28;20133;-70
2022/10/21 04:17:39;;;;;;;38.28;24.00;;;12.50;99.90;;;;;;4996168;28;20105;-70
2022/10/21 04:20:05;;;;;;;33.90;22.67;;;12.50;99.90;;;;;;4996595;28;20050;-70
2022/10/21 04:22:31;;;;;;;33.75;21.40;;;12.60;99.90;;;;;;4980071;28;20066;-70
2022/10/21 04:24:57;;;;;;;32.22;21.25;;;12.60;99.90;;;;;;4980587;28;20514;-69
2022/10/21 04:27:22;;;;;;;45.60;26.33;;;12.60;99.90;;;;;;4996335;28;20488;-70
2022/10/21 04:29:48;;;;;;;35.70;22.98;;;12.70;99.90;;;;;;4980022;28;20042;-70
2022/10/21 04:32:13;;;;;;;46.60;26.70;;;12.60;99.90;;;;;;4996427;28;20045;-70
2022/10/21 04:34:39;;;;;;;40.30;25.90;;;12.60;99.90;;;;;;4980524;28;20372;-70
2022/10/21 04:37:04;;;;;;;42.60;25.92;;;12.60;99.90;;;;;;4980880;28;20550;-70
2022/10/21 04:39:30;;;;;;;37.15;23.77;;;12.60;99.90;;;;;;4979846;28;20559;-70
2022/10/21 04:41:56;;;;;;;41.92;27.60;;;12.60;99.90;;;;;;4979976;28;20074;-70
2022/10/21 04:44:21;;;;;;;43.15;26.80;;;12.60;99.90;;;;;;4963541;28;20168;-70
2022/10/21 04:46:47;;;;;;;41.00;25.33;;;12.60;99.90;;;;;;4979648;28;20048;-70
2022/10/21 04:49:13;;;;;;;55.28;30.08;;;12.60;99.90;;;;;;4979959;28;20495;-70
2022/10/21 04:51:38;;;;;;;49.30;28.25;;;12.60;99.90;;;;;;4979454;28;20053;-70
2022/10/21 04:54:04;;;;;;;47.88;27.88;;;12.60;99.90;;;;;;4980334;28;20049;-70
2022/10/21 04:56:29;;;;;;;40.88;25.55;;;12.60;99.90;;;;;;4979545;28;20050;-70
2022/10/21 04:58:55;;;;;;;52.05;29.40;;;12.60;99.90;;;;;;4979890;28;20053;-70
2022/10/21 05:01:20;;;;;;;44.25;28.08;;;12.60;99.90;;;;;;4980476;28;20069;-70
2022/10/21 05:03:46;;;;;;;44.17;26.25;;;12.60;99.90;;;;;;4979939;28;20053;-70
2022/10/21 05:06:11;;;;;;;55.50;30.27;;;12.60;99.90;;;;;;4979532;28;20081;-70
2022/10/21 05:08:37;;;;;;;62.42;31.88;;;12.50;99.90;;;;;;4996241;28;20042;-70
2022/10/21 05:11:03;;;;;;;45.50;27.48;;;12.50;99.90;;;;;;4979644;28;20046;-70
2022/10/21 05:13:29;;;;;;;58.63;30.30;;;12.60;99.90;;;;;;4979926;28;20057;-70
2022/10/21 05:16:00;;;;;;;56.60;29.58;;;12.50;99.90;;;;;;4995993;28;20053;-70
2022/10/21 05:18:26;;;;;;;40.53;25.65;;;12.50;99.90;;;;;;4978111;28;20042;-70
2022/10/21 05:20:53;;;;;;;79.63;32.40;;;12.50;99.90;;;;;;4994857;28;20065;-71
2022/10/21 05:23:19;;;;;;;37.00;24.08;;;12.50;99.90;;;;;;4978828;28;20081;-70
2022/10/21 05:25:45;;;;;;;69.97;34.00;;;12.50;99.90;;;;;;4979038;28;20034;-70
2022/10/21 05:28:11;;;;;;;40.83;25.85;;;12.50;99.90;;;;;;4997132;28;20045;-70
2022/10/21 05:30:37;;;;;;;36.65;23.95;;;12.50;99.90;;;;;;4982868;28;20046;-70
2022/10/21 05:33:02;;;;;;;42.55;26.63;;;12.50;99.90;;;;;;4982498;28;20050;-69
2022/10/21 05:35:28;;;;;;;44.50;26.23;;;12.50;99.90;;;;;;4982920;28;20046;-70
2022/10/21 05:37:53;;;;;;;50.83;28.98;;;12.50;99.90;;;;;;4982490;28;20151;-70
2022/10/21 05:40:19;;;;;;;46.17;28.05;;;12.50;99.90;;;;;;4999391;28;20426;-70
2022/10/21 05:42:45;;;;;;;44.70;27.15;;;12.50;99.90;;;;;;4982874;28;20042;-70
2022/10/21 05:45:11;;;;;;;37.03;25.08;;;12.50;99.90;;;;;;4982173;28;20050;-70
2022/10/21 05:47:39;;;;;;;51.22;28.65;;;12.40;99.90;;;;;;4982254;28;20109;-70
2022/10/21 05:50:05;;;;;;;48.15;27.08;;;12.40;99.90;;;;;;4981653;28;20046;-70
2022/10/21 05:52:30;;;;;;;45.25;27.38;;;12.40;99.90;;;;;;4981681;28;20049;-70
2022/10/21 05:54:56;;;;;;;45.60;26.58;;;12.40;99.90;;;;;;4982301;28;20047;-70
2022/10/21 05:57:21;;;;;;;44.15;26.02;;;12.40;99.90;;;;;;4998820;28;20048;-70
2022/10/21 05:59:47;;;;;;;34.22;23.45;;;12.30;99.90;;;;;;4997596;28;20125;-70
2022/10/21 06:02:13;;;;;;;40.22;25.80;;;12.30;99.90;;;;;;4980998;28;20046;-70
2022/10/21 06:04:38;;;;;;;47.10;27.77;;;12.30;99.90;;;;;;4981133;28;20040;-70
2022/10/21 06:07:04;;;;;;;46.88;26.88;;;12.30;99.90;;;;;;4981133;28;20048;-70
2022/10/21 06:09:29;;;;;;;43.15;24.85;;;12.30;99.90;;;;;;4998553;28;20105;-70
2022/10/21 06:11:56;;;;;;;50.05;27.52;;;12.30;99.90;;;;;;4981660;28;20042;-69
2022/10/21 06:14:22;;;;;;;44.45;25.60;;;12.30;99.90;;;;;;4981516;28;20415;-70
2022/10/21 06:16:48;;;;;;;41.72;26.65;;;12.30;99.90;;;;;;4980749;28;20050;-70
2022/10/21 06:19:14;;;;;;;48.05;26.73;;;12.20;99.90;;;;;;4980780;28;20038;-70
2022/10/21 06:21:39;;;;;;;37.97;24.10;;;12.20;99.90;;;;;;4980694;28;20042;-70
2022/10/21 06:24:05;;;;;;;68.72;30.20;;;12.20;99.90;;;;;;4998241;28;20050;-70
2022/10/21 06:26:30;;;;;;;41.97;25.67;;;12.20;99.90;;;;;;4979748;28;20073;-72
2022/10/21 06:28:56;;;;;;;41.72;25.45;;;12.20;99.90;;;;;;4980171;28;20041;-70
2022/10/21 06:31:22;;;;;;;38.72;22.65;;;12.20;99.90;;;;;;4980549;28;20121;-70
2022/10/21 06:33:48;;;;;;;36.08;23.45;;;12.20;99.90;;;;;;4980660;28;20137;-70
2022/10/21 06:36:14;;;;;;;47.35;25.92;;;12.20;99.90;;;;;;4996673;28;20121;-71
2022/10/21 06:38:40;;;;;;;38.35;25.15;;;12.20;99.90;;;;;;4979875;28;20051;-71
2022/10/21 06:41:08;;;;;;;30.10;21.23;;;12.20;99.90;;;;;;4980688;28;20053;-70
2022/10/21 06:43:34;;;;;;;56.28;29.20;;;12.20;99.90;;;;;;4996815;28;20035;-70
2022/10/21 06:46:10;;;;;;;48.00;25.50;;;12.20;99.90;;;;;;4980950;28;20042;-71
2022/10/21 06:48:36;;;;;;;44.13;26.08;;;12.30;99.90;;;;;;4980098;28;20124;-69
2022/10/21 06:51:05;;;;;;;38.70;24.35;;;12.20;99.90;;;;;;4996341;28;20093;-70
2022/10/21 06:53:31;;;;;;;35.53;23.27;;;12.30;99.90;;;;;;4978101;28;20518;-69
2022/10/21 06:56:09;;;;;;;33.13;22.90;;;12.30;99.90;;;;;;4994259;28;20053;-70
2022/10/21 06:58:37;;;;;;;40.92;24.73;;;12.30;99.90;;;;;;4979034;28;20060;-69
2022/10/21 07:01:07;;;;;;;33.38;21.10;;;12.30;99.90;;;;;;4994195;28;20049;-70
2022/10/21 07:03:32;;;;;;;36.40;23.52;;;12.30;99.90;;;;;;4994161;28;20411;-69
2022/10/21 07:05:59;;;;;;;35.38;22.17;;;12.30;99.90;;;;;;4994046;28;20041;-70
2022/10/21 07:08:26;;;;;;;42.90;24.55;;;12.40;99.90;;;;;;4993995;28;20041;-69
2022/10/21 07:10:51;;;;;;;29.75;20.40;;;12.40;99.90;;;;;;4977780;28;20042;-69
2022/10/21 07:13:17;;;;;;;42.83;23.85;;;12.40;99.90;;;;;;4995204;28;20064;-69
2022/10/21 07:15:43;;;;;;;40.65;24.35;;;12.50;99.90;;;;;;4978034;28;20074;-69
2022/10/21 07:18:08;;;;;;;47.83;24.77;;;12.50;99.90;;;;;;4995182;28;20042;-70
2022/10/21 07:20:34;;;;;;;41.92;25.65;;;12.50;99.90;;;;;;4994260;28;20049;-70
2022/10/21 07:22:59;;;;;;;40.83;24.55;;;12.50;99.90;;;;;;4977933;28;20045;-70
2022/10/21 07:25:25;;;;;;;42.58;25.05;;;12.60;99.90;;;;;;4961705;28;20038;-69
2022/10/21 07:27:50;;;;;;;42.40;25.35;;;12.60;99.90;;;;;;4977776;28;20046;-68
2022/10/21 07:30:16;;;;;;;49.85;26.38;;;12.60;99.90;;;;;;4977835;28;20138;-69
2022/10/21 07:32:42;;;;;;;38.47;24.33;;;12.70;99.90;;;;;;4977521;28;20499;-70
2022/10/21 07:35:08;;;;;;;43.22;25.08;;;12.70;99.90;;;;;;4994304;28;20079;-72
2022/10/21 07:37:33;;;;;;;45.53;25.88;;;12.70;99.90;;;;;;4994927;28;20042;-70
2022/10/21 07:39:59;;;;;;;37.83;22.70;;;12.70;99.90;;;;;;4994701;28;20042;-71
2022/10/21 07:42:27;;;;;;;32.30;23.40;;;12.70;99.90;;;;;;4995210;28;20034;-70
2022/10/21 07:44:58;;;;;;;35.47;21.58;;;12.70;99.90;;;;;;4978795;28;20399;-70
2022/10/21 07:47:24;;;;;;;38.78;24.80;;;12.80;99.90;;;;;;4978881;28;20069;-70
2022/10/21 07:49:50;;;;;;;32.90;20.98;;;12.80;99.90;;;;;;4962154;28;20046;-70
2022/10/21 07:52:16;;;;;;;44.60;24.20;;;12.80;99.90;;;;;;4994474;28;20101;-70
2022/10/21 07:54:42;;;;;;;35.17;21.95;;;12.90;99.90;;;;;;4978376;28;20045;-71
2022/10/21 07:57:08;;;;;;;38.28;24.55;;;12.90;99.90;;;;;;4978002;28;20042;-70
2022/10/21 07:59:33;;;;;;;39.15;23.50;;;13.00;99.90;;;;;;4978532;28;20569;-70
2022/10/21 08:01:59;;;;;;;37.17;23.65;;;13.00;99.90;;;;;;4978553;28;20033;-69
2022/10/21 08:04:30;;;;;;;38.17;22.95;;;13.10;99.90;;;;;;4978441;28;20487;-70
2022/10/21 08:06:56;;;;;;;33.53;21.13;;;13.10;99.90;;;;;;4978614;28;20042;-70
2022/10/21 08:09:22;;;;;;;37.88;23.48;;;13.20;99.90;;;;;;4978460;28;20034;-70
2022/10/21 08:11:48;;;;;;;28.92;21.38;;;13.30;99.90;;;;;;4978432;28;20466;-70
2022/10/21 08:14:14;;;;;;;37.45;23.10;;;13.30;99.90;;;;;;4994756;28;20100;-70
2022/10/21 08:16:40;;;;;;;30.90;21.60;;;13.40;99.90;;;;;;4994461;28;20070;-69
2022/10/21 08:19:06;;;;;;;27.73;20.60;;;13.50;99.90;;;;;;4994457;28;20050;-70
2022/10/21 08:21:32;;;;;;;32.70;21.75;;;13.60;99.90;;;;;;4978115;28;20085;-70
2022/10/21 08:24:01;;;;;;;33.28;21.98;;;13.70;99.90;;;;;;4962407;28;20079;-69
2022/10/21 08:26:26;;;;;;;34.85;21.73;;;13.80;99.90;;;;;;4978534;28;20049;-69
2022/10/21 08:28:52;;;;;;;33.65;21.98;;;13.80;99.90;;;;;;4994518;28;20038;-69
2022/10/21 08:31:19;;;;;;;35.90;22.45;;;13.90;99.90;;;;;;4994490;28;20057;-70
2022/10/21 08:33:45;;;;;;;30.08;19.52;;;14.00;99.90;;;;;;4978406;28;20050;-69
2022/10/21 08:36:14;;;;;;;26.55;18.92;;;14.10;99.90;;;;;;4978442;28;20407;-69
2022/10/21 08:38:39;;;;;;;29.85;21.65;;;14.30;99.90;;;;;;4978524;28;20565;-69
2022/10/21 08:41:32;;;;;;;20.63;16.83;;;14.50;99.90;;;;;;4978471;28;20042;-70
2022/10/21 08:44:32;;;;;;;23.85;15.77;;;15.10;99.90;;;;;;4993942;28;20089;-70
2022/10/21 08:47:08;;;;;;;18.60;14.25;;;16.30;99.90;;;;;;4965226;28;20058;-70
2022/10/21 08:49:46;;;;;;;23.15;13.98;;;17.20;99.90;;;;;;4977576;28;20049;-70
2022/10/21 08:52:20;;;;;;;16.65;12.75;;;17.90;99.90;;;;;;4977026;28;20034;-70
2022/10/21 08:55:00;;;;;;;18.40;12.60;;;18.70;99.90;;;;;;4976737;28;20041;-70
2022/10/21 08:57:27;;;;;;;15.85;12.68;;;19.20;99.90;;;;;;4977250;28;20042;-70
2022/10/21 08:59:54;;;;;;;17.17;11.90;;;19.50;99.90;;;;;;4992702;28;20125;-70
2022/10/21 09:02:39;;;;;;;16.45;11.65;;;19.60;99.90;;;;;;4979537;28;20403;-70
2022/10/21 09:05:20;;;;;;;19.60;11.85;;;19.20;99.90;;;;;;4981090;28;20034;-70
2022/10/21 09:07:59;;;;;;;14.68;11.50;;;18.70;99.90;;;;;;4981390;28;20049;-71
2022/10/21 09:10:39;;;;;;;19.80;12.05;;;18.30;99.90;;;;;;4981715;28;20038;-70
2022/10/21 09:13:10;;;;;;;19.75;11.98;;;17.90;99.90;;;;;;4981813;28;20514;-70
2022/10/21 09:15:52;;;;;;;18.83;12.43;;;17.50;99.90;;;;;;4981801;28;20058;-70
2022/10/21 09:18:43;;;;;;;20.67;11.77;;;17.50;99.90;;;;;;4981319;28;20034;-70
2022/10/21 09:21:37;;;;;;;18.15;12.15;;;17.40;99.90;;;;;;4997742;28;20042;-70
2022/10/21 09:24:23;;;;;;;22.33;12.57;;;17.20;99.90;;;;;;4997812;28;20073;-69
2022/10/21 09:26:51;;;;;;;18.95;13.35;;;17.10;99.90;;;;;;4981345;28;20034;-70
2022/10/21 09:29:24;;;;;;;18.45;13.25;;;17.00;99.90;;;;;;4996886;28;20113;-70
2022/10/21 09:31:50;;;;;;;18.35;13.18;;;17.00;99.90;;;;;;4981883;28;20053;-70
2022/10/21 09:34:30;;;;;;;20.77;12.95;;;16.90;99.90;;;;;;4981909;28;20050;-70
2022/10/21 09:36:58;;;;;;;19.63;12.43;;;16.90;99.90;;;;;;4981601;28;20056;-70
2022/10/21 09:39:35;;;;;;;17.30;12.82;;;16.90;99.90;;;;;;4981627;28;20069;-70
2022/10/21 09:42:00;;;;;;;18.70;11.70;;;17.20;99.90;;;;;;4981037;28;20455;-70
2022/10/21 09:44:26;;;;;;;17.15;11.05;;;17.70;99.90;;;;;;4980697;28;20034;-70
2022/10/21 09:46:52;;;;;;;14.65;10.40;;;18.20;99.90;;;;;;4980601;28;20035;-70
2022/10/21 09:49:23;;;;;;;15.05;9.82;;;18.90;99.90;;;;;;4980789;28;20105;-70
2022/10/21 09:51:49;;;;;;;19.42;10.10;;;19.30;99.90;;;;;;4980143;28;20038;-71
2022/10/21 09:54:21;;;;;;;14.38;10.52;;;19.50;99.90;;;;;;4997469;28;20088;-70
2022/10/21 09:56:57;;;;;;;16.73;8.88;;;19.70;99.90;;;;;;4979916;28;20035;-70
2022/10/21 09:59:24;;;;;;;15.85;10.18;;;19.80;99.90;;;;;;4979913;28;20045;-70
2022/10/21 10:01:50;;;;;;;18.33;8.90;;;19.80;99.90;;;;;;4980025;28;20046;-70
2022/10/21 10:04:29;;;;;;;14.52;10.05;;;19.50;99.90;;;;;;4980031;28;20165;-70
2022/10/21 10:06:57;;;;;;;16.25;9.55;;;19.10;99.90;;;;;;4980237;28;20049;-70
2022/10/21 10:09:37;;;;;;;14.60;10.27;;;18.70;99.90;;;;;;4980030;28;20491;-70
2022/10/21 10:12:08;;;;;;;14.63;10.48;;;18.30;99.90;;;;;;4980261;28;20518;-70
2022/10/21 10:14:37;;;;;;;15.90;10.27;;;18.00;99.90;;;;;;4979048;28;20538;-70
2022/10/21 10:17:18;;;;;;;15.95;10.70;;;17.80;99.90;;;;;;4979902;28;20129;-70
2022/10/21 10:20:06;;;;;;;18.30;10.32;;;17.70;99.90;;;;;;4980178;28;20046;-70
2022/10/21 10:23:07;;;;;;;14.93;9.38;;;17.60;99.90;;;;;;4964263;28;20050;-70
2022/10/21 10:25:36;;;;;;;14.65;10.10;;;17.50;99.90;;;;;;4980343;28;20092;-70
2022/10/21 10:28:15;;;;;;;14.50;9.80;;;17.40;99.90;;;;;;4980024;28;20038;-69
2022/10/21 10:30:40;;;;;;;15.73;10.38;;;17.30;99.90;;;;;;4979794;28;20049;-70
2022/10/21 10:33:26;;;;;;;15.35;9.88;;;17.30;99.90;;;;;;4996654;28;20050;-70
2022/10/21 10:36:01;;;;;;;15.10;9.80;;;17.30;99.90;;;;;;4980452;28;20121;-70
2022/10/21 10:38:52;;;;;;;17.48;10.30;;;17.20;99.90;;;;;;4980548;28;20093;-69
2022/10/21 10:41:18;;;;;;;16.65;10.20;;;17.20;99.90;;;;;;4979946;28;20098;-69
2022/10/21 10:43:54;;;;;;;14.85;9.77;;;17.20;99.90;;;;;;4980412;28;20045;-70
2022/10/21 10:46:24;;;;;;;17.90;10.30;;;17.10;99.90;;;;;;4980280;28;20038;-70
2022/10/21 10:48:51;;;;;;;13.10;9.48;;;17.10;99.90;;;;;;4980273;28;20495;-70
2022/10/21 10:51:34;;;;;;;19.23;10.60;;;17.10;99.90;;;;;;4997420;28;20073;-70
2022/10/21 10:54:05;;;;;;;16.10;10.10;;;17.10;99.90;;;;;;4963852;28;20093;-69
2022/10/21 10:56:47;;;;;;;13.98;9.80;;;17.00;99.90;;;;;;4979953;28;20104;-70
2022/10/21 10:59:25;;;;;;;14.80;10.15;;;17.10;99.90;;;;;;4979894;28;20046;-69
2022/10/21 11:02:06;;;;;;;15.80;9.82;;;17.10;99.90;;;;;;4979306;28;20407;-70
2022/10/21 11:04:45;;;;;;;16.67;10.10;;;17.20;99.90;;;;;;4979430;28;20042;-70
2022/10/21 11:07:32;;;;;;;14.32;9.10;;;17.40;99.90;;;;;;4979082;28;20610;-70
2022/10/21 11:10:03;;;;;;;14.90;9.35;;;17.50;99.90;;;;;;4979124;28;20053;-70
2022/10/21 11:12:30;;;;;;;18.02;10.13;;;17.60;99.90;;;;;;4962761;28;20499;-70
2022/10/21 11:14:58;;;;;;;14.07;8.68;;;17.60;99.90;;;;;;4979582;28;20057;-70
2022/10/21 11:18:00;;;;;;;16.90;9.23;;;17.70;99.90;;;;;;4996305;28;20124;-70
2022/10/21 11:20:57;;;;;;;18.88;9.43;;;17.70;99.90;;;;;;4979337;28;20054;-70
2022/10/21 11:23:33;;;;;;;15.27;8.45;;;17.70;99.90;;;;;;4977873;28;20100;-70
2022/10/21 11:26:12;;;;;;;14.90;9.18;;;17.60;99.90;;;;;;4978996;28;20035;-70
2022/10/21 11:29:03;;;;;;;14.15;8.70;;;17.50;99.90;;;;;;4979074;28;20042;-70
2022/10/21 11:31:47;;;;;;;12.52;8.63;;;17.50;99.90;;;;;;4979282;28;20053;-70
2022/10/21 11:34:28;;;;;;;16.27;8.68;;;17.60;99.90;;;;;;4979518;28;20101;-69
2022/10/21 11:37:28;;;;;;;11.15;7.72;;;17.70;99.90;;;;;;4978571;28;20078;-70
2022/10/21 11:40:26;;;;;;;15.77;8.32;;;17.70;99.90;;;;;;4978672;28;20097;-70
2022/10/21 11:42:53;;;;;;;12.75;7.13;;;17.70;99.90;;;;;;4978092;28;20038;-70
2022/10/21 11:45:37;;;;;;;16.05;6.72;;;17.60;99.90;;;;;;4978942;28;20587;-70
2022/10/21 11:48:21;;;;;;;12.02;6.35;;;17.60;99.90;;;;;;4978750;28;20046;-69
2022/10/21 11:51:31;;;;;;;11.57;6.70;;;17.40;99.90;;;;;;4979072;28;20103;-70
2022/10/21 11:54:31;;;;;;;10.45;6.93;;;17.40;99.90;;;;;;4978183;28;20507;-70
2022/10/21 11:57:15;;;;;;;9.98;6.03;;;17.30;99.90;;;;;;4978745;28;20057;-70
2022/10/21 11:59:49;;;;;;;13.95;6.70;;;17.20;99.90;;;;;;4978653;28;20511;-70
2022/10/21 12:02:20;;;;;;;12.45;7.00;;;17.20;99.90;;;;;;4978309;28;20043;-70
2022/10/21 12:05:04;;;;;;;13.10;7.38;;;17.20;99.90;;;;;;4977898;28;20480;-70
2022/10/21 12:08:03;;;;;;;11.93;6.72;;;17.20;99.90;;;;;;4978462;28;20053;-70
2022/10/21 12:10:50;;;;;;;12.00;6.72;;;17.30;99.90;;;;;;4978540;28;20101;-70
2022/10/21 12:13:40;;;;;;;11.63;6.75;;;17.50;99.90;;;;;;4977707;28;20049;-70
2022/10/21 12:16:16;;;;;;;12.90;7.43;;;17.50;99.90;;;;;;4961928;28;20499;-70
2022/10/21 12:18:48;;;;;;;10.95;6.15;;;17.50;99.90;;;;;;4978099;28;20422;-70
2022/10/21 12:21:17;;;;;;;13.93;6.80;;;17.50;99.90;;;;;;4977755;28;20134;-71
2022/10/21 12:23:43;;;;;;;15.07;7.05;;;17.40;99.90;;;;;;4962501;28;20109;-71
2022/10/21 12:26:20;;;;;;;15.20;7.22;;;17.40;99.90;;;;;;4996408;28;20038;-70
2022/10/21 12:29:21;;;;;;;13.10;6.88;;;17.30;99.90;;;;;;4996288;28;20057;-70
2022/10/21 12:31:57;;;;;;;12.55;6.60;;;17.20;99.90;;;;;;4977825;28;20141;-70
2022/10/21 12:34:23;;;;;;;11.80;6.85;;;17.20;99.90;;;;;;4978125;28;20525;-70
2022/10/21 12:36:50;;;;;;;12.63;6.70;;;17.10;99.90;;;;;;4977410;28;20052;-70
2022/10/21 12:39:31;;;;;;;10.43;6.40;;;17.10;99.90;;;;;;4977872;28;20518;-70
2022/10/21 12:42:16;;;;;;;15.52;7.60;;;17.10;99.90;;;;;;4977750;28;20046;-70
2022/10/21 12:44:47;;;;;;;11.93;7.07;;;17.10;99.90;;;;;;4977915;28;20074;-70
2022/10/21 12:47:33;;;;;;;15.35;7.70;;;17.10;99.90;;;;;;4978017;28;20049;-70